Time;durP1;ratioP1;P1;durP2;ratioP2;P2;SDS_P1;SDS_P2;PMS_P1;PMS_P2;Temp;Humidity;BMP_temperature;BMP_pressure;BME280_temperature;BME280_humidity;BME280_pressure;Samples;Min_cycle;Max_cycle;Signal;HPM_P1;HPM_P2
2023/01/21 00:02:10;;;;;;;19.67;8.45;;;-1.60;65.70;;;;;;5013193;28;20037;-59
2023/01/21 00:04:39;;;;;;;13.77;7.90;;;-1.60;65.70;;;;;;5014070;28;20460;-60
2023/01/21 00:07:05;;;;;;;14.82;8.77;;;-1.60;65.60;;;;;;5015593;28;20030;-60
2023/01/21 00:09:31;;;;;;;17.73;7.90;;;-1.60;65.60;;;;;;5003792;28;20027;-60
2023/01/21 00:12:01;;;;;;;17.08;8.38;;;-1.60;65.50;;;;;;5018734;28;20041;-60
2023/01/21 00:14:30;;;;;;;16.42;8.43;;;-1.70;65.60;;;;;;5009216;28;20542;-60
2023/01/21 00:16:57;;;;;;;16.58;7.78;;;-1.70;65.60;;;;;;5009284;28;20445;-60
2023/01/21 00:19:23;;;;;;;19.30;7.53;;;-1.70;65.50;;;;;;5008240;28;20038;-60
2023/01/21 00:21:49;;;;;;;14.85;7.57;;;-1.70;65.40;;;;;;5016779;28;20088;-60
2023/01/21 00:24:15;;;;;;;17.75;7.88;;;-1.70;65.50;;;;;;5009935;28;20022;-59
2023/01/21 00:26:40;;;;;;;17.63;7.88;;;-1.70;65.50;;;;;;4995965;28;20043;-59
2023/01/21 00:29:06;;;;;;;16.17;8.32;;;-1.80;65.40;;;;;;5016458;28;20039;-59
2023/01/21 00:31:32;;;;;;;15.45;7.82;;;-1.80;65.40;;;;;;5009189;28;20018;-59
2023/01/21 00:33:57;;;;;;;15.30;8.23;;;-1.80;65.40;;;;;;4996404;28;20026;-60
2023/01/21 00:36:28;;;;;;;16.52;7.70;;;-1.80;65.40;;;;;;5018294;28;20026;-60
2023/01/21 00:38:56;;;;;;;15.68;7.97;;;-1.80;65.50;;;;;;5012395;28;20060;-60
2023/01/21 00:41:25;;;;;;;15.07;8.10;;;-1.80;65.40;;;;;;5014826;28;20042;-59
2023/01/21 00:43:51;;;;;;;12.75;7.32;;;-1.90;65.30;;;;;;5000607;28;20532;-59
2023/01/21 00:46:17;;;;;;;22.80;8.68;;;-1.90;65.30;;;;;;4992646;28;20628;-61
2023/01/21 00:48:43;;;;;;;19.98;7.88;;;-1.80;65.50;;;;;;5012504;28;20037;-60
2023/01/21 00:51:09;;;;;;;14.43;7.30;;;-1.90;65.40;;;;;;5013179;28;20037;-60
2023/01/21 00:53:37;;;;;;;10.50;6.55;;;-1.90;65.40;;;;;;5009881;28;20032;-59
2023/01/21 00:56:08;;;;;;;13.55;7.53;;;-2.00;65.30;;;;;;5006648;28;20033;-60
2023/01/21 00:58:34;;;;;;;14.75;8.55;;;-2.00;65.40;;;;;;5011545;28;20045;-60
2023/01/21 01:01:03;;;;;;;16.58;7.72;;;-2.00;65.40;;;;;;4997872;28;20041;-60
2023/01/21 01:03:30;;;;;;;15.73;7.88;;;-2.00;65.40;;;;;;5012162;28;20041;-59
2023/01/21 01:06:03;;;;;;;20.50;8.07;;;-2.00;65.40;;;;;;5015250;28;20532;-60
2023/01/21 01:08:29;;;;;;;14.30;7.70;;;-2.10;65.40;;;;;;5012948;28;20109;-60
2023/01/21 01:10:55;;;;;;;11.35;7.28;;;-2.10;65.40;;;;;;5017932;28;20040;-60
2023/01/21 01:13:21;;;;;;;11.35;6.57;;;-2.10;65.40;;;;;;5012666;28;20037;-60
2023/01/21 01:15:50;;;;;;;17.10;7.75;;;-2.10;65.40;;;;;;5016504;28;20040;-61
2023/01/21 01:18:16;;;;;;;11.75;6.47;;;-2.10;65.50;;;;;;5010346;28;20073;-59
2023/01/21 01:20:42;;;;;;;13.32;6.88;;;-2.10;65.40;;;;;;5006865;28;20038;-61
2023/01/21 01:23:08;;;;;;;13.25;7.35;;;-2.10;65.40;;;;;;5006121;28;20065;-60
2023/01/21 01:25:36;;;;;;;10.82;6.70;;;-2.20;65.30;;;;;;5010422;28;20026;-61
2023/01/21 01:28:03;;;;;;;12.32;7.50;;;-2.20;65.30;;;;;;5012572;28;20022;-60
2023/01/21 01:30:28;;;;;;;14.60;7.18;;;-2.20;65.30;;;;;;5012122;28;20133;-60
2023/01/21 01:32:54;;;;;;;15.55;7.28;;;-2.20;65.30;;;;;;5012104;28;20038;-60
2023/01/21 01:35:19;;;;;;;12.70;6.70;;;-2.20;65.40;;;;;;5019170;28;20036;-60
2023/01/21 01:37:45;;;;;;;11.57;5.95;;;-2.20;65.30;;;;;;5012006;28;20159;-60
2023/01/21 01:40:11;;;;;;;13.48;6.78;;;-2.30;65.20;;;;;;5015001;28;20042;-60
2023/01/21 01:42:37;;;;;;;13.55;7.03;;;-2.30;65.20;;;;;;5009873;28;20038;-60
2023/01/21 01:45:06;;;;;;;12.75;7.05;;;-2.30;65.20;;;;;;5007140;28;20045;-59
2023/01/21 01:47:41;;;;;;;17.17;7.55;;;-2.30;65.10;;;;;;5012626;28;20045;-59
2023/01/21 01:50:10;;;;;;;14.45;7.03;;;-2.30;65.20;;;;;;5015525;28;20022;-60
2023/01/21 01:52:36;;;;;;;14.77;7.10;;;-2.30;65.00;;;;;;5014640;28;20038;-60
2023/01/21 01:55:04;;;;;;;11.85;6.45;;;-2.30;64.90;;;;;;5012842;28;20045;-60
2023/01/21 01:57:44;;;;;;;11.65;6.85;;;-2.40;64.70;;;;;;5014480;28;20022;-61
2023/01/21 02:00:12;;;;;;;10.70;6.28;;;-2.40;64.80;;;;;;5017164;28;20034;-60
2023/01/21 02:02:40;;;;;;;12.98;6.95;;;-2.40;64.90;;;;;;5015259;28;20041;-60
2023/01/21 02:05:09;;;;;;;13.40;7.55;;;-2.40;65.10;;;;;;4995037;28;20030;-60
2023/01/21 02:07:39;;;;;;;12.15;6.97;;;-2.40;65.30;;;;;;5015532;28;20026;-60
2023/01/21 02:10:13;;;;;;;12.38;7.38;;;-2.40;65.40;;;;;;5017462;28;20102;-60
2023/01/21 02:12:40;;;;;;;;;;;-2.40;65.50;;;;;;5020493;28;20026;-60
2023/01/21 02:15:07;;;;;;;14.65;6.63;;;-2.40;65.60;;;;;;5011471;28;19960;-60
2023/01/21 02:17:41;;;;;;;17.42;7.00;;;-2.40;65.30;;;;;;5018221;28;20026;-60
2023/01/21 02:20:45;;;;;;;15.60;7.25;;;-2.40;65.30;;;;;;5012011;28;20037;-59
2023/01/21 02:23:25;;;;;;;15.95;7.32;;;-2.40;65.40;;;;;;5015888;28;20022;-59
2023/01/21 02:26:15;;;;;;;12.57;6.97;;;-2.40;65.40;;;;;;5006159;28;20031;-59
2023/01/21 02:28:59;;;;;;;17.65;7.63;;;-2.50;65.50;;;;;;5019168;28;20029;-60
2023/01/21 02:31:48;;;;;;;14.18;7.00;;;-2.40;65.60;;;;;;5020388;28;20113;-59
2023/01/21 02:34:23;;;;;;;12.40;6.57;;;-2.50;65.60;;;;;;5018106;28;20037;-59
2023/01/21 02:36:58;;;;;;;13.23;6.70;;;-2.50;65.60;;;;;;5009307;28;20034;-61
2023/01/21 02:39:49;;;;;;;14.93;6.88;;;-2.50;65.60;;;;;;5013468;28;20033;-59
2023/01/21 02:42:25;;;;;;;11.35;7.05;;;-2.50;65.60;;;;;;5011624;28;20030;-60
2023/01/21 02:45:03;;;;;;;13.52;6.78;;;-2.50;65.60;;;;;;5015535;28;20065;-60
2023/01/21 02:47:55;;;;;;;12.00;6.95;;;-2.50;65.60;;;;;;5014410;28;20161;-61
2023/01/21 02:50:29;;;;;;;13.73;7.00;;;-2.40;65.80;;;;;;4970697;28;20330;-59
2023/01/21 02:52:59;;;;;;;9.15;5.35;;;-2.50;65.80;;;;;;4970358;28;20051;-60
2023/01/21 02:55:31;;;;;;;10.25;6.25;;;-2.50;65.90;;;;;;4972765;28;20046;-59
2023/01/21 02:58:04;;;;;;;14.27;7.18;;;-2.50;65.80;;;;;;4977232;28;20024;-60
2023/01/21 03:00:51;;;;;;;14.93;6.68;;;-2.50;65.80;;;;;;4969403;28;20035;-60
2023/01/21 03:03:47;;;;;;;12.75;6.82;;;-2.50;66.00;;;;;;4978319;28;20034;-59
2023/01/21 03:06:27;;;;;;;10.23;6.13;;;-2.40;66.20;;;;;;4979330;28;20510;-59
2023/01/21 03:09:05;;;;;;;14.35;7.32;;;-2.40;66.00;;;;;;4980568;28;20042;-59
2023/01/21 03:11:31;;;;;;;12.45;6.22;;;-2.40;65.90;;;;;;4980434;28;20038;-59
2023/01/21 03:17:00;;;;;;;10.00;5.63;;;-2.40;65.80;;;;;;4975562;28;20125;-59
2023/01/21 03:19:31;;;;;;;11.07;5.78;;;-2.30;65.80;;;;;;4973311;28;20126;-59
2023/01/21 03:21:59;;;;;;;11.60;6.53;;;-2.40;65.70;;;;;;4972914;28;20039;-59
2023/01/21 03:24:25;;;;;;;12.35;7.00;;;-2.40;65.70;;;;;;4978774;28;20066;-59
2023/01/21 03:26:56;;;;;;;11.02;6.43;;;-2.40;65.70;;;;;;4987908;28;20046;-59
2023/01/21 03:29:25;;;;;;;18.40;7.43;;;-2.30;65.80;;;;;;5016093;28;20045;-60
2023/01/21 03:31:56;;;;;;;13.10;6.75;;;-2.30;65.70;;;;;;5019059;28;20062;-60
2023/01/21 03:34:26;;;;;;;11.77;6.38;;;-2.30;65.60;;;;;;5006732;28;20053;-59
2023/01/21 03:37:06;;;;;;;11.23;6.97;;;-2.40;65.50;;;;;;5010976;28;20022;-59
2023/01/21 03:39:38;;;;;;;17.23;8.05;;;-2.40;65.50;;;;;;5015596;28;20038;-59
2023/01/21 03:42:04;;;;;;;13.63;6.50;;;-2.40;65.40;;;;;;5013359;28;20089;-59
2023/01/21 03:44:29;;;;;;;14.30;7.38;;;-2.40;65.30;;;;;;5001359;28;20042;-59
2023/01/21 03:47:27;;;;;;;14.85;6.90;;;-2.40;65.30;;;;;;4993821;28;20026;-59
2023/01/21 03:49:58;;;;;;;12.90;6.75;;;-2.50;65.30;;;;;;5003379;28;20479;-60
2023/01/21 03:52:25;;;;;;;17.88;6.35;;;-2.40;65.40;;;;;;5014371;28;20022;-60
2023/01/21 03:54:51;;;;;;;9.32;6.35;;;-2.50;65.40;;;;;;5012640;28;20113;-59
2023/01/21 03:57:16;;;;;;;17.50;6.47;;;-2.50;65.50;;;;;;5020768;28;20149;-61
2023/01/21 03:59:42;;;;;;;16.90;6.97;;;-2.50;65.60;;;;;;5009082;28;20105;-60
2023/01/21 04:02:08;;;;;;;12.10;6.47;;;-2.50;65.70;;;;;;5008625;28;20032;-60
2023/01/21 04:04:34;;;;;;;15.65;6.13;;;-2.50;65.70;;;;;;5017817;28;20100;-61
2023/01/21 04:07:00;;;;;;;17.30;7.25;;;-2.50;65.70;;;;;;5012553;28;20086;-60
2023/01/21 04:09:25;;;;;;;14.60;6.35;;;-2.50;65.70;;;;;;5006364;28;20026;-59
2023/01/21 04:11:51;;;;;;;11.63;6.43;;;-2.50;65.70;;;;;;5015421;28;20060;-59
2023/01/21 04:14:16;;;;;;;12.05;5.82;;;-2.50;65.80;;;;;;5012649;28;20029;-60
2023/01/21 04:16:42;;;;;;;13.77;6.28;;;-2.50;65.70;;;;;;5008773;28;20446;-59
2023/01/21 04:19:08;;;;;;;10.27;6.18;;;-2.50;65.60;;;;;;5006794;28;20023;-61
2023/01/21 04:21:33;;;;;;;13.60;5.95;;;-2.50;65.60;;;;;;5009923;28;20105;-61
2023/01/21 04:23:59;;;;;;;13.80;6.60;;;-2.50;65.50;;;;;;5009053;28;20077;-60
2023/01/21 04:26:25;;;;;;;14.63;6.25;;;-2.50;65.50;;;;;;5010638;28;20021;-60
2023/01/21 04:28:50;;;;;;;14.25;6.78;;;-2.50;65.50;;;;;;4989257;28;20033;-60
2023/01/21 04:31:16;;;;;;;13.48;7.70;;;-2.60;65.40;;;;;;5011976;28;20053;-61
2023/01/21 04:33:42;;;;;;;13.45;6.70;;;-2.60;65.60;;;;;;4987169;28;20053;-59
2023/01/21 04:36:07;;;;;;;14.20;6.45;;;-2.60;65.80;;;;;;5008048;28;20034;-60
2023/01/21 04:38:33;;;;;;;15.85;6.82;;;-2.60;65.80;;;;;;4991569;28;20386;-61
2023/01/21 04:40:59;;;;;;;12.23;6.10;;;-2.60;65.80;;;;;;5018821;28;20034;-60
2023/01/21 04:43:24;;;;;;;14.27;6.55;;;-2.60;65.80;;;;;;5013231;28;20065;-61
2023/01/21 04:45:50;;;;;;;15.50;6.85;;;-2.70;65.70;;;;;;5015229;28;20034;-61
2023/01/21 04:48:16;;;;;;;10.82;6.22;;;-2.70;65.70;;;;;;5013966;28;20026;-60
2023/01/21 04:50:42;;;;;;;12.90;6.10;;;-2.70;65.60;;;;;;5010359;28;20034;-60
2023/01/21 04:53:08;;;;;;;10.73;6.25;;;-2.70;65.60;;;;;;5013601;28;20030;-60
2023/01/21 04:55:33;;;;;;;13.32;6.70;;;-2.70;65.80;;;;;;5016196;28;20021;-61
2023/01/21 04:57:59;;;;;;;16.15;6.28;;;-2.80;65.80;;;;;;5013995;28;20033;-61
2023/01/21 05:00:25;;;;;;;15.23;6.25;;;-2.80;66.00;;;;;;4995877;28;20034;-60
2023/01/21 05:02:50;;;;;;;11.60;6.00;;;-2.80;66.00;;;;;;5011484;28;20036;-61
2023/01/21 05:05:16;;;;;;;10.27;6.13;;;-2.80;66.00;;;;;;5013255;28;20058;-60
2023/01/21 05:07:42;;;;;;;9.63;5.80;;;-2.70;66.10;;;;;;5004056;28;20045;-59
2023/01/21 05:10:13;;;;;;;12.57;6.38;;;-2.80;66.00;;;;;;5014300;28;20026;-59
2023/01/21 05:12:39;;;;;;;14.85;5.93;;;-2.70;66.20;;;;;;5010496;28;20034;-59
2023/01/21 05:15:05;;;;;;;22.48;7.05;;;-2.70;66.30;;;;;;5000331;28;20094;-59
2023/01/21 05:17:31;;;;;;;14.38;6.15;;;-2.70;66.40;;;;;;5008500;28;20021;-59
2023/01/21 05:19:57;;;;;;;15.75;6.68;;;-2.70;66.40;;;;;;5013702;28;20380;-59
2023/01/21 05:22:22;;;;;;;14.35;6.82;;;-2.70;66.50;;;;;;5014249;28;20057;-59
2023/01/21 05:24:48;;;;;;;16.50;6.13;;;-2.70;66.60;;;;;;5013026;28;20037;-59
2023/01/21 05:27:14;;;;;;;19.13;6.88;;;-2.60;66.80;;;;;;5008141;28;20037;-59
2023/01/21 05:29:40;;;;;;;13.02;6.60;;;-2.60;66.80;;;;;;5013262;28;20049;-59
2023/01/21 05:32:06;;;;;;;13.80;6.25;;;-2.60;66.80;;;;;;5013101;28;20030;-59
2023/01/21 05:34:32;;;;;;;12.95;7.40;;;-2.50;66.80;;;;;;5010582;28;20034;-59
2023/01/21 05:36:57;;;;;;;12.55;6.40;;;-2.50;66.90;;;;;;5007435;28;20109;-59
2023/01/21 05:39:23;;;;;;;20.05;6.97;;;-2.50;66.90;;;;;;5001398;28;20057;-59
2023/01/21 05:41:48;;;;;;;16.38;6.95;;;-2.50;66.90;;;;;;5018069;28;20034;-59
2023/01/21 05:44:14;;;;;;;13.65;6.88;;;-2.40;67.00;;;;;;5018075;28;20081;-59
2023/01/21 05:46:40;;;;;;;12.68;6.20;;;-2.50;66.90;;;;;;5017811;28;20045;-60
2023/01/21 05:49:05;;;;;;;20.70;7.78;;;-2.40;67.00;;;;;;5012596;28;20029;-61
2023/01/21 05:51:31;;;;;;;21.58;8.73;;;-2.40;67.10;;;;;;5011602;28;20057;-59
2023/01/21 05:53:57;;;;;;;17.75;8.88;;;-2.40;67.30;;;;;;5006244;28;20026;-60
2023/01/21 05:56:22;;;;;;;18.77;8.93;;;-2.40;67.50;;;;;;5013942;28;20037;-61
2023/01/21 05:58:48;;;;;;;21.25;8.23;;;-2.40;67.70;;;;;;5012097;28;20034;-61
2023/01/21 06:01:13;;;;;;;21.35;8.80;;;-2.40;67.80;;;;;;5013392;28;20041;-60
2023/01/21 06:03:39;;;;;;;21.65;10.25;;;-2.30;67.90;;;;;;5011290;28;20030;-60
2023/01/21 06:06:05;;;;;;;32.33;13.48;;;-2.30;68.00;;;;;;5013263;28;20026;-60
2023/01/21 06:08:31;;;;;;;21.25;10.93;;;-2.30;68.60;;;;;;4991731;28;20125;-59
2023/01/21 06:10:56;;;;;;;27.13;11.65;;;-2.00;68.90;;;;;;5013357;28;20026;-59
2023/01/21 06:13:22;;;;;;;26.48;11.52;;;-2.20;68.90;;;;;;5013367;28;20084;-59
2023/01/21 06:15:48;;;;;;;24.90;10.73;;;-2.10;69.00;;;;;;5004001;28;20034;-60
2023/01/21 06:18:14;;;;;;;25.75;12.13;;;-2.10;68.90;;;;;;5008509;28;20037;-59
2023/01/21 06:20:40;;;;;;;29.08;11.95;;;-2.10;69.70;;;;;;4954803;28;20034;-60
2023/01/21 06:23:05;;;;;;;28.52;12.55;;;-2.00;69.60;;;;;;5010781;28;20049;-61
2023/01/21 06:25:32;;;;;;;27.23;11.40;;;-2.00;69.30;;;;;;5013157;28;20097;-59
2023/01/21 06:27:58;;;;;;;29.35;13.50;;;-1.90;70.00;;;;;;5006227;28;20030;-60
2023/01/21 06:30:24;;;;;;;28.08;11.20;;;-1.70;70.70;;;;;;5007567;28;20074;-59
2023/01/21 06:32:50;;;;;;;22.45;10.40;;;-1.80;70.20;;;;;;5011127;28;20029;-60
2023/01/21 06:35:16;;;;;;;26.83;11.30;;;-1.70;70.00;;;;;;5009195;28;20141;-59
2023/01/21 06:37:43;;;;;;;24.50;10.10;;;-1.70;69.80;;;;;;5006928;28;20081;-59
2023/01/21 06:40:10;;;;;;;26.25;10.70;;;-1.60;69.40;;;;;;5009803;28;20037;-59
2023/01/21 06:42:36;;;;;;;23.35;10.38;;;-1.60;69.10;;;;;;5011720;28;20038;-59
2023/01/21 06:45:02;;;;;;;29.58;11.18;;;-1.50;69.50;;;;;;5008458;28;20421;-59
2023/01/21 06:47:27;;;;;;;24.42;11.45;;;-1.40;69.10;;;;;;5009150;28;20018;-59
2023/01/21 06:49:53;;;;;;;31.45;11.57;;;-1.30;69.90;;;;;;5013092;28;20037;-60
2023/01/21 06:52:18;;;;;;;24.80;9.73;;;-1.30;69.80;;;;;;4995251;28;20057;-60
2023/01/21 06:54:44;;;;;;;24.80;11.50;;;-1.20;69.90;;;;;;5016203;28;20030;-59
2023/01/21 06:57:10;;;;;;;30.48;11.23;;;-1.10;70.00;;;;;;5022724;28;20026;-59
2023/01/21 06:59:36;;;;;;;28.13;11.45;;;-1.00;69.30;;;;;;5021193;28;20034;-59
2023/01/21 07:02:02;;;;;;;28.15;10.70;;;-1.00;69.70;;;;;;5019543;28;20040;-60
2023/01/21 07:04:28;;;;;;;22.15;9.43;;;-1.00;69.40;;;;;;5012411;28;20109;-60
2023/01/21 07:06:54;;;;;;;23.77;11.63;;;-0.80;70.20;;;;;;5017204;28;20014;-59
2023/01/21 07:09:20;;;;;;;24.38;11.68;;;-0.90;69.40;;;;;;4998149;28;20030;-59
2023/01/21 07:11:46;;;;;;;28.23;12.82;;;-0.80;70.10;;;;;;5008356;28;20038;-60
2023/01/21 07:14:11;;;;;;;23.92;11.77;;;-0.80;69.90;;;;;;5005839;28;20027;-60
2023/01/21 07:16:37;;;;;;;25.48;11.00;;;-0.70;70.00;;;;;;5018675;28;20032;-59
2023/01/21 07:19:03;;;;;;;25.60;11.73;;;-0.50;69.60;;;;;;5018597;28;20478;-60
2023/01/21 07:21:28;;;;;;;23.48;11.20;;;-0.40;69.70;;;;;;5013455;28;20147;-61
2023/01/21 07:23:54;;;;;;;28.08;12.80;;;-0.50;70.00;;;;;;5007245;28;20022;-60
2023/01/21 07:26:20;;;;;;;22.88;11.27;;;-0.50;70.50;;;;;;5009445;28;20038;-61
2023/01/21 07:28:46;;;;;;;23.20;10.93;;;-0.40;70.40;;;;;;5012796;28;20435;-60
2023/01/21 07:31:12;;;;;;;26.55;11.20;;;-0.40;70.10;;;;;;4994521;28;20041;-60
2023/01/21 07:33:38;;;;;;;25.77;12.25;;;-0.30;70.40;;;;;;5011737;28;20033;-60
2023/01/21 07:36:04;;;;;;;23.15;10.52;;;-0.20;70.30;;;;;;5012617;28;20487;-60
2023/01/21 07:38:30;;;;;;;28.70;12.05;;;-0.20;70.40;;;;;;5011563;28;20028;-60
2023/01/21 07:40:56;;;;;;;25.45;12.30;;;-0.20;70.70;;;;;;5011801;28;20065;-60
2023/01/21 07:43:22;;;;;;;24.55;11.63;;;-0.10;70.10;;;;;;5012160;28;22295;-60
2023/01/21 07:45:48;;;;;;;18.65;10.05;;;0.00;70.00;;;;;;5017380;28;20033;-60
2023/01/21 07:48:13;;;;;;;22.00;10.82;;;0.00;70.30;;;;;;5012874;28;20058;-60
2023/01/21 07:50:39;;;;;;;22.77;10.82;;;0.10;70.10;;;;;;5013606;28;20022;-60
2023/01/21 07:53:05;;;;;;;24.88;10.50;;;0.10;70.30;;;;;;5014398;28;20033;-60
2023/01/21 07:55:31;;;;;;;22.63;9.77;;;0.20;70.20;;;;;;5015268;28;20471;-61
2023/01/21 07:57:57;;;;;;;19.30;9.85;;;0.20;70.30;;;;;;5012443;28;20022;-60
2023/01/21 08:00:25;;;;;;;20.90;10.65;;;0.40;70.20;;;;;;5013403;28;20038;-60
2023/01/21 08:02:55;;;;;;;26.00;10.88;;;0.40;70.60;;;;;;5011732;28;20036;-60
2023/01/21 08:05:22;;;;;;;23.05;10.50;;;0.50;70.10;;;;;;5020226;28;20057;-60
2023/01/21 08:07:48;;;;;;;21.33;10.77;;;0.50;70.30;;;;;;4993780;28;20034;-61
2023/01/21 08:10:14;;;;;;;25.15;11.32;;;0.60;70.20;;;;;;5017341;28;20022;-61
2023/01/21 08:12:41;;;;;;;28.58;11.98;;;0.60;70.50;;;;;;5017799;28;20026;-60
2023/01/21 08:15:07;;;;;;;26.10;12.10;;;0.90;70.40;;;;;;5007748;28;20077;-59
2023/01/21 08:17:36;;;;;;;26.90;11.15;;;0.80;70.50;;;;;;5013159;28;20389;-59
2023/01/21 08:20:01;;;;;;;24.42;11.43;;;0.80;70.10;;;;;;5019058;28;20030;-59
2023/01/21 08:22:27;;;;;;;25.33;11.02;;;0.90;69.90;;;;;;5013760;28;20046;-60
2023/01/21 08:24:52;;;;;;;26.50;11.57;;;0.90;69.80;;;;;;5008277;28;20084;-59
2023/01/21 08:27:19;;;;;;;29.67;17.55;;;1.00;69.40;;;;;;5013346;28;20025;-60
2023/01/21 08:29:47;;;;;;;25.85;11.35;;;1.00;69.50;;;;;;4990060;28;20027;-60
2023/01/21 08:32:13;;;;;;;26.10;11.00;;;1.10;69.60;;;;;;5019575;28;20057;-60
2023/01/21 08:34:38;;;;;;;26.75;11.85;;;1.20;69.50;;;;;;5013360;28;20026;-60
2023/01/21 08:37:04;;;;;;;24.40;11.73;;;1.30;69.20;;;;;;5014538;28;20041;-60
2023/01/21 08:39:30;;;;;;;28.27;11.93;;;1.30;69.00;;;;;;5004676;28;20070;-60
2023/01/21 08:41:55;;;;;;;24.95;11.95;;;1.40;69.00;;;;;;5017196;28;20026;-60
2023/01/21 08:44:21;;;;;;;22.23;11.60;;;1.40;68.80;;;;;;5026160;28;20042;-60
2023/01/21 08:46:48;;;;;;;23.42;11.15;;;1.50;68.90;;;;;;5027291;28;20084;-60
2023/01/21 08:49:13;;;;;;;32.15;13.57;;;1.50;68.80;;;;;;5032999;28;20030;-60
2023/01/21 08:51:40;;;;;;;26.65;11.93;;;1.50;68.80;;;;;;5031123;28;20033;-60
2023/01/21 08:54:06;;;;;;;34.60;13.10;;;1.70;68.80;;;;;;5031893;28;20072;-60
2023/01/21 08:56:32;;;;;;;23.60;12.15;;;1.60;68.90;;;;;;5020245;28;20040;-60
2023/01/21 08:58:57;;;;;;;24.73;11.90;;;1.70;68.70;;;;;;5034203;28;20025;-59
2023/01/21 09:01:24;;;;;;;27.30;12.63;;;1.70;68.60;;;;;;5033424;28;20043;-60
2023/01/21 09:03:57;;;;;;;29.95;12.48;;;1.70;68.70;;;;;;5029031;28;20085;-59
2023/01/21 09:06:25;;;;;;;19.53;9.47;;;1.80;68.50;;;;;;5035483;28;20018;-60
2023/01/21 09:08:50;;;;;;;30.42;14.98;;;1.90;68.50;;;;;;5016005;28;20347;-60
2023/01/21 09:11:16;;;;;;;27.40;12.25;;;1.90;68.40;;;;;;5032337;28;20052;-60
2023/01/21 09:13:43;;;;;;;19.23;10.98;;;1.90;68.10;;;;;;5030273;28;20030;-60
2023/01/21 09:16:14;;;;;;;26.10;11.98;;;1.90;67.90;;;;;;5026348;28;20018;-61
2023/01/21 09:18:41;;;;;;;26.83;11.38;;;1.90;67.70;;;;;;5038906;28;20025;-60
2023/01/21 09:21:08;;;;;;;21.20;10.88;;;2.10;67.80;;;;;;5035864;28;20041;-62
2023/01/21 09:23:35;;;;;;;20.08;10.13;;;1.90;67.70;;;;;;5033464;28;20076;-61
2023/01/21 09:26:06;;;;;;;26.13;11.98;;;1.90;67.80;;;;;;5029535;28;20026;-60
2023/01/21 09:28:34;;;;;;;20.52;11.23;;;1.90;67.90;;;;;;5036233;28;20051;-61
2023/01/21 09:31:02;;;;;;;21.13;10.07;;;1.90;67.90;;;;;;5027828;28;20113;-61
2023/01/21 09:33:29;;;;;;;23.13;10.90;;;2.00;68.00;;;;;;5034493;28;20029;-61
2023/01/21 09:35:57;;;;;;;32.47;12.02;;;2.00;68.00;;;;;;5030419;28;20378;-60
2023/01/21 09:38:24;;;;;;;24.67;13.80;;;1.90;68.00;;;;;;5030708;28;20022;-62
2023/01/21 09:40:50;;;;;;;25.42;13.77;;;1.90;68.00;;;;;;5032026;28;20144;-62
2023/01/21 09:43:22;;;;;;;23.95;12.55;;;2.00;68.00;;;;;;5028138;28;20052;-60
2023/01/21 09:45:49;;;;;;;24.85;11.07;;;2.00;67.80;;;;;;5024871;28;20087;-60
2023/01/21 09:48:28;;;;;;;20.00;10.13;;;2.00;67.60;;;;;;5026420;28;20038;-61
2023/01/21 09:50:55;;;;;;;21.80;9.38;;;2.10;67.70;;;;;;5034338;28;20049;-60
2023/01/21 09:53:28;;;;;;;20.30;10.38;;;2.10;67.60;;;;;;5029885;28;20048;-61
2023/01/21 09:55:57;;;;;;;27.98;11.18;;;2.10;67.70;;;;;;5029307;28;20029;-60
2023/01/21 09:58:36;;;;;;;25.77;14.93;;;2.20;67.70;;;;;;5034300;28;20102;-60
2023/01/21 10:01:14;;;;;;;24.23;11.50;;;2.20;67.70;;;;;;5033703;28;20033;-61
2023/01/21 10:03:49;;;;;;;19.48;10.00;;;2.30;67.50;;;;;;5033313;28;20036;-60
2023/01/21 10:06:34;;;;;;;27.73;10.48;;;2.30;67.20;;;;;;5025986;28;20032;-60
2023/01/21 10:09:18;;;;;;;23.17;9.98;;;2.40;67.10;;;;;;5027081;28;20113;-60
2023/01/21 10:11:53;;;;;;;;;;;2.50;67.10;;;;;;5028400;28;20018;-60
2023/01/21 10:14:53;;;;;;;17.08;8.20;;;2.50;67.00;;;;;;5030740;28;19909;-60
2023/01/21 10:17:31;;;;;;;16.50;8.88;;;2.60;66.80;;;;;;5026568;28;20034;-60
2023/01/21 10:20:16;;;;;;;17.60;8.90;;;2.60;66.50;;;;;;4979888;28;20037;-60
2023/01/21 10:22:48;;;;;;;20.92;9.57;;;2.60;66.50;;;;;;5035791;28;20030;-61
2023/01/21 10:25:21;;;;;;;19.92;9.90;;;2.60;66.60;;;;;;5035073;28;20092;-60
2023/01/21 10:27:47;;;;;;;18.73;10.30;;;2.60;66.50;;;;;;5033346;28;20423;-60
2023/01/21 10:30:23;;;;;;;20.92;9.43;;;2.70;66.60;;;;;;5036759;28;20271;-60
2023/01/21 10:32:53;;;;;;;22.60;9.75;;;2.60;66.40;;;;;;5028460;28;20022;-60
2023/01/21 10:35:29;;;;;;;15.73;8.02;;;2.60;66.10;;;;;;5011187;28;20030;-60
2023/01/21 10:38:26;;;;;;;19.52;8.93;;;2.60;66.00;;;;;;5034831;28;20026;-60
2023/01/21 10:41:18;;;;;;;21.65;9.90;;;2.60;66.20;;;;;;5023161;28;20045;-60
2023/01/21 10:43:54;;;;;;;18.45;9.93;;;2.60;66.90;;;;;;5034002;28;20045;-60
2023/01/21 10:46:43;;;;;;;20.85;9.80;;;2.60;65.90;;;;;;5033708;28;20041;-61
2023/01/21 10:49:43;;;;;;;18.10;8.95;;;2.60;65.80;;;;;;5034635;28;20035;-60
2023/01/21 10:52:21;;;;;;;17.77;9.10;;;2.80;65.90;;;;;;4974708;28;20057;-60
2023/01/21 10:54:55;;;;;;;15.77;8.40;;;2.50;65.70;;;;;;4973683;28;20120;-60
2023/01/21 10:57:32;;;;;;;19.30;9.35;;;2.50;66.10;;;;;;4965282;28;20035;-60
2023/01/21 11:00:01;;;;;;;16.38;8.98;;;2.50;66.30;;;;;;4969219;28;20286;-60
2023/01/21 11:02:30;;;;;;;18.27;9.20;;;2.50;66.30;;;;;;4969567;28;20039;-60
2023/01/21 11:05:01;;;;;;;21.55;9.95;;;2.50;66.30;;;;;;4973306;28;20434;-60
2023/01/21 11:07:32;;;;;;;18.98;9.23;;;2.50;66.50;;;;;;4967429;28;20034;-61
2023/01/21 11:10:00;;;;;;;18.73;10.13;;;2.50;66.30;;;;;;4969125;28;20114;-61
2023/01/21 11:12:26;;;;;;;18.27;9.55;;;2.50;66.30;;;;;;4968887;28;20023;-60
2023/01/21 11:14:57;;;;;;;20.42;9.77;;;2.50;66.40;;;;;;4969751;28;20040;-60
2023/01/21 11:17:34;;;;;;;24.83;11.20;;;2.60;66.80;;;;;;4974894;28;20170;-59
2023/01/21 11:20:02;;;;;;;22.38;10.02;;;2.60;66.80;;;;;;4969953;28;20081;-60
2023/01/21 11:22:31;;;;;;;17.50;9.30;;;2.60;66.80;;;;;;4972305;28;20035;-59
2023/01/21 11:24:58;;;;;;;19.70;9.90;;;2.60;66.80;;;;;;4968594;28;20031;-61
2023/01/21 11:27:27;;;;;;;23.67;11.63;;;2.70;66.80;;;;;;4987183;28;20066;-60
2023/01/21 11:29:53;;;;;;;17.25;10.68;;;2.70;66.70;;;;;;5030990;28;20042;-60
2023/01/21 11:32:21;;;;;;;21.27;10.23;;;2.50;66.80;;;;;;5032250;28;20413;-61
2023/01/21 11:34:49;;;;;;;23.55;11.70;;;2.70;66.90;;;;;;5033705;28;20041;-60
2023/01/21 11:37:24;;;;;;;21.27;10.95;;;2.80;66.90;;;;;;5032004;28;20024;-62
2023/01/21 11:40:06;;;;;;;18.55;10.82;;;2.80;66.80;;;;;;5025805;28;20413;-61
2023/01/21 11:42:32;;;;;;;19.50;10.52;;;2.80;66.80;;;;;;5037560;28;20099;-62
2023/01/21 11:45:00;;;;;;;20.70;10.30;;;2.80;66.50;;;;;;5026841;28;20057;-61
2023/01/21 11:47:48;;;;;;;19.05;9.55;;;2.90;66.30;;;;;;5028832;28;20079;-61
2023/01/21 11:50:27;;;;;;;18.38;9.68;;;2.90;66.40;;;;;;5012264;28;20040;-61
2023/01/21 11:53:14;;;;;;;17.70;10.70;;;3.00;66.60;;;;;;5029295;28;20481;-62
2023/01/21 11:55:51;;;;;;;18.83;10.10;;;2.90;66.40;;;;;;5027739;28;20029;-61
2023/01/21 11:58:38;;;;;;;19.98;9.98;;;2.90;66.50;;;;;;5020138;28;20057;-61
2023/01/21 12:01:17;;;;;;;16.05;9.02;;;2.90;66.50;;;;;;5029385;28;20048;-61
2023/01/21 12:03:56;;;;;;;18.83;11.00;;;2.80;66.60;;;;;;5026425;28;20021;-62
2023/01/21 12:06:29;;;;;;;22.10;10.38;;;3.10;67.00;;;;;;5029742;28;20128;-61
2023/01/21 12:08:59;;;;;;;17.73;10.10;;;2.90;66.70;;;;;;5028092;28;20029;-61
2023/01/21 12:11:28;;;;;;;21.48;10.70;;;2.90;66.70;;;;;;5035577;28;20029;-62
2023/01/21 12:14:35;;;;;;;19.52;9.35;;;2.90;66.70;;;;;;5035790;28;20076;-62
2023/01/21 12:17:24;;;;;;;17.70;9.60;;;2.90;67.00;;;;;;5011482;28;20042;-61
2023/01/21 12:20:02;;;;;;;15.98;8.95;;;3.00;67.10;;;;;;5018409;28;20084;-61
2023/01/21 12:22:37;;;;;;;19.77;10.10;;;2.90;67.10;;;;;;5027256;28;20022;-60
2023/01/21 12:25:40;;;;;;;18.67;10.15;;;3.00;66.90;;;;;;5029535;28;20029;-60
2023/01/21 12:28:35;;;;;;;17.92;9.18;;;3.00;66.70;;;;;;5015122;28;20501;-60
2023/01/21 12:31:01;;;;;;;;;;;3.10;66.60;;;;;;5034968;28;20381;-60
2023/01/21 12:33:29;;;;;;;15.50;9.52;;;3.10;66.10;;;;;;5032240;28;19940;-60
2023/01/21 12:36:02;;;;;;;16.38;9.13;;;3.10;66.00;;;;;;5029754;28;20029;-60
2023/01/21 12:38:34;;;;;;;20.83;10.93;;;3.10;66.20;;;;;;5030938;28;20097;-60
2023/01/21 12:41:21;;;;;;;16.95;9.98;;;3.10;66.20;;;;;;5033312;28;20045;-62
2023/01/21 12:43:51;;;;;;;16.50;9.55;;;3.10;66.10;;;;;;5029946;28;20069;-60
2023/01/21 12:46:26;;;;;;;20.65;11.23;;;3.10;66.20;;;;;;5034629;28;20109;-60
2023/01/21 12:49:07;;;;;;;15.73;9.10;;;3.00;66.00;;;;;;5025563;28;20026;-61
2023/01/21 12:51:42;;;;;;;19.15;9.23;;;3.00;66.00;;;;;;5028519;28;20021;-61
2023/01/21 12:54:10;;;;;;;15.43;8.90;;;3.00;66.00;;;;;;5036706;28;20097;-60
2023/01/21 12:56:44;;;;;;;18.30;10.18;;;3.00;66.00;;;;;;5035040;28;20029;-60